Airfield :
LOGIN :

Register | Disclaimer

   EN    FR    IT 

 










Legend :    VFR   Marginal VFR   IFR   Intensive IFR   Very Intensive IFR
Visi :
Ceiling :
>= 8 km
>= 3000ft
5 to 8 km
1000 to 3000 ft
1500m to 5 km
500 to 1000 ft
800 to 1500m
200 to 500 ft
< 800m
< 200 ft
Symbols :   Thunderstorms  Fog  Heavy snow  Heavy precipitations  Wind > 20 kt
SIGMETs :     Misc.  Thunderstorms  Icing  Turbulence  Mountain Waves  Volcanic Ashes






- Airport Elevation : 313 ft
- IATA code : LEH


LFOH - Le Havre Octeville

CURRENT METAR :
  • 211630Z AUTO 15010KT 9999 -DZ OVC012 07/06 Q1000 TEMPO 3000 RA OVC003

EXPIRED METARs :
  • 211600Z AUTO 15010KT 9999 -RA BKN014 BKN023 BKN037 07/06 Q1000 TEMPO 3000 RA OVC003
  • 211530Z AUTO 15011KT 9999 -RA SCT033 BKN041 BKN048 07/05 Q1000 TEMPO 3000 RA OVC003
  • 211500Z AUTO 15011KT 9999 FEW014 BKN042 BKN052 07/05 Q1000 TEMPO 3000 RA OVC003
  • 211430Z AUTO 15011KT 9999 BKN015 BKN046 BKN052 07/05 Q1000 TEMPO 3000 RA OVC003
  • 211400Z AUTO 15013KT 9999 FEW023 BKN047 OVC058 07/05 Q1000 TEMPO 3000 RA OVC003

TAF TAF LFOH
Valid from the 21 at 12:00 until the 22 at 12:00 UTC


211100Z 2112/2212 14012KT 7000 SCT005 BKN030
BECMG 2112/2114 BKN012
TEMPO 2114/2118 3000 RA OVC003
BECMG 2123/2201 NSC
TEMPO 2208/2212 BKN008
ATIS : +33 2 35 54 64 93



MET'MAP, your aeronautical weather chart ! - Copyright ORBIFLY December 2007 - Disclaimer

ORBIFLY MET'MAP TEAM :

Programming & Development : Alexandra Zaïnal
Concept & Development : Baudouin d'Aumeries
Co-Development & Prog : Marc-Olivier Méhu
Technical & hardware support : Manuel Goepfert

Contact : metmap@orbifly.com




SOURCES & CREDITS :

   NOAA